Time;durP1;ratioP1;P1;durP2;ratioP2;P2;SDS_P1;SDS_P2;PMS_P1;PMS_P2;Temp;Humidity;BMP_temperature;BMP_pressure;BME280_temperature;BME280_humidity;BME280_pressure;Samples;Min_cycle;Max_cycle;Signal;HPM_P1;HPM_P2
2020/12/05 00:02:16;;;;;;;27.97;7.50;;;;;;;;;;5072227;28;20027;-79
2020/12/05 00:04:42;;;;;;;30.60;8.93;;;;;;;;;;5071712;28;20020;-79
2020/12/05 00:07:07;;;;;;;29.53;8.77;;;;;;;;;;5062068;28;20059;-79
2020/12/05 00:09:33;;;;;;;30.10;8.93;;;;;;;;;;5070512;28;20027;-79
2020/12/05 00:12:00;;;;;;;29.60;7.53;;;;;;;;;;5071876;28;20016;-78
2020/12/05 00:14:26;;;;;;;25.17;7.77;;;;;;;;;;5071620;28;20039;-79
2020/12/05 00:16:51;;;;;;;22.10;6.67;;;;;;;;;;5071725;28;20091;-79
2020/12/05 00:19:17;;;;;;;17.30;5.73;;;;;;;;;;5071038;28;20487;-79
2020/12/05 00:21:42;;;;;;;29.97;9.17;;;;;;;;;;5070318;28;20024;-78
2020/12/05 00:24:07;;;;;;;35.70;12.40;;;;;;;;;;5071823;28;20052;-79
2020/12/05 00:26:32;;;;;;;33.63;11.00;;;;;;;;;;5074813;28;20016;-79
2020/12/05 00:28:58;;;;;;;29.00;11.00;;;;;;;;;;5072634;28;20579;-79
2020/12/05 00:31:23;;;;;;;31.57;11.23;;;;;;;;;;5071837;28;20029;-79
2020/12/05 00:33:50;;;;;;;27.43;10.87;;;;;;;;;;5075352;28;20024;-79
2020/12/05 00:36:16;;;;;;;25.20;9.90;;;;;;;;;;5075474;28;20029;-79
2020/12/05 00:38:41;;;;;;;18.03;7.23;;;;;;;;;;5075423;28;20437;-79
2020/12/05 00:41:07;;;;;;;18.03;5.93;;;;;;;;;;5075449;28;20025;-79
2020/12/05 00:43:33;;;;;;;9.40;4.27;;;;;;;;;;5075887;28;20449;-79
2020/12/05 00:45:59;;;;;;;11.30;4.57;;;;;;;;;;5075453;28;20040;-79
2020/12/05 00:48:24;;;;;;;8.97;3.87;;;;;;;;;;5075702;28;20075;-79
2020/12/05 00:50:49;;;;;;;7.87;3.60;;;;;;;;;;5074884;28;20400;-79
2020/12/05 00:53:15;;;;;;;9.40;3.90;;;;;;;;;;5075764;28;20033;-79
2020/12/05 00:55:40;;;;;;;6.50;3.50;;;;;;;;;;5064353;28;20044;-79
2020/12/05 00:58:05;;;;;;;8.27;4.17;;;;;;;;;;5072797;28;20039;-79
2020/12/05 01:00:30;;;;;;;8.90;3.70;;;;;;;;;;5074264;28;20035;-79
2020/12/05 01:02:55;;;;;;;11.27;4.37;;;;;;;;;;5075217;28;20024;-79
2020/12/05 01:05:21;;;;;;;10.97;5.00;;;;;;;;;;5075420;28;20012;-79
2020/12/05 01:07:46;;;;;;;11.23;4.27;;;;;;;;;;5075173;28;20013;-79
2020/12/05 01:10:11;;;;;;;11.70;4.17;;;;;;;;;;5073641;28;20464;-79
2020/12/05 01:12:36;;;;;;;12.10;4.53;;;;;;;;;;5075243;28;20070;-79
2020/12/05 01:15:02;;;;;;;15.63;5.73;;;;;;;;;;5074549;28;20021;-79
2020/12/05 01:17:28;;;;;;;11.93;5.77;;;;;;;;;;5074847;28;20026;-79
2020/12/05 01:19:56;;;;;;;13.10;5.93;;;;;;;;;;5066808;28;20029;-79
2020/12/05 01:22:21;;;;;;;14.20;6.43;;;;;;;;;;5074991;28;20499;-79
2020/12/05 01:24:47;;;;;;;18.33;7.37;;;;;;;;;;5075013;28;20021;-79
2020/12/05 01:27:12;;;;;;;17.30;7.13;;;;;;;;;;5073732;28;20013;-78
2020/12/05 01:29:37;;;;;;;14.20;6.53;;;;;;;;;;5075001;28;20050;-79
2020/12/05 01:32:02;;;;;;;16.57;7.00;;;;;;;;;;5074771;28;20095;-79
2020/12/05 01:34:27;;;;;;;16.70;7.37;;;;;;;;;;5074653;28;20012;-79
2020/12/05 01:36:53;;;;;;;15.97;6.93;;;;;;;;;;5074522;28;20055;-79
2020/12/05 01:39:18;;;;;;;15.27;7.40;;;;;;;;;;5073539;28;20456;-79
2020/12/05 01:41:43;;;;;;;22.07;8.00;;;;;;;;;;5073467;28;20024;-79
2020/12/05 01:44:08;;;;;;;16.20;8.03;;;;;;;;;;5073070;28;20066;-78
2020/12/05 01:46:37;;;;;;;13.17;7.10;;;;;;;;;;5059813;28;20423;-79
2020/12/05 01:49:03;;;;;;;17.00;6.77;;;;;;;;;;5070502;28;20016;-79
2020/12/05 01:51:30;;;;;;;14.77;6.03;;;;;;;;;;5074390;28;20012;-79
2020/12/05 01:53:55;;;;;;;12.40;6.30;;;;;;;;;;5074047;28;20024;-78
2020/12/05 01:56:21;;;;;;;14.53;6.13;;;;;;;;;;5072907;28;20021;-79
2020/12/05 01:58:46;;;;;;;17.57;6.13;;;;;;;;;;5073245;28;20468;-79
2020/12/05 02:01:13;;;;;;;13.63;6.23;;;;;;;;;;5074068;28;20025;-79
2020/12/05 02:03:38;;;;;;;10.43;6.00;;;;;;;;;;5072660;28;20023;-79
2020/12/05 02:06:27;;;;;;;12.30;6.13;;;;;;;;;;5074258;28;20368;-78
2020/12/05 02:09:07;;;;;;;13.37;6.50;;;;;;;;;;5071245;28;20024;-79
2020/12/05 02:11:37;;;;;;;14.77;6.40;;;;;;;;;;5060769;28;20493;-79
2020/12/05 02:14:04;;;;;;;10.90;5.70;;;;;;;;;;5074051;28;20028;-79
2020/12/05 02:16:30;;;;;;;14.30;7.53;;;;;;;;;;5072576;28;20020;-79
2020/12/05 02:18:56;;;;;;;13.57;6.57;;;;;;;;;;5074221;28;20031;-79
2020/12/05 02:21:23;;;;;;;15.77;6.87;;;;;;;;;;5073760;28;20103;-79
2020/12/05 02:23:49;;;;;;;12.60;5.90;;;;;;;;;;5071873;28;20024;-78
2020/12/05 02:26:14;;;;;;;10.17;6.00;;;;;;;;;;5072786;28;20021;-79
2020/12/05 02:28:40;;;;;;;12.20;6.07;;;;;;;;;;5073825;28;20019;-79
2020/12/05 02:31:06;;;;;;;11.13;5.83;;;;;;;;;;5072483;28;20052;-79
2020/12/05 02:33:31;;;;;;;10.10;5.40;;;;;;;;;;5073559;28;20095;-79
2020/12/05 02:35:56;;;;;;;14.23;6.53;;;;;;;;;;5072079;28;20147;-79
2020/12/05 02:38:24;;;;;;;12.30;5.50;;;;;;;;;;5070165;28;20027;-78
2020/12/05 02:40:50;;;;;;;12.47;6.20;;;;;;;;;;5069659;28;20031;-79
2020/12/05 02:43:15;;;;;;;12.40;5.77;;;;;;;;;;5070760;28;20077;-79
2020/12/05 02:45:40;;;;;;;12.27;5.27;;;;;;;;;;5069061;28;20021;-79
2020/12/05 02:48:06;;;;;;;7.23;4.53;;;;;;;;;;5070467;28;20368;-78
2020/12/05 02:50:32;;;;;;;10.10;5.23;;;;;;;;;;5070312;28;20023;-79
2020/12/05 02:52:57;;;;;;;8.47;4.53;;;;;;;;;;5071175;28;20013;-79
2020/12/05 02:55:22;;;;;;;13.57;4.97;;;;;;;;;;5070411;28;20079;-78
2020/12/05 02:57:47;;;;;;;12.20;5.07;;;;;;;;;;5070673;28;20027;-78
2020/12/05 03:00:12;;;;;;;11.23;4.80;;;;;;;;;;5070430;28;20021;-79
2020/12/05 03:02:38;;;;;;;16.23;6.17;;;;;;;;;;5066750;28;20043;-79
2020/12/05 03:05:03;;;;;;;12.93;4.67;;;;;;;;;;5071532;28;20444;-79
2020/12/05 03:07:28;;;;;;;13.30;5.70;;;;;;;;;;5071990;28;20016;-79
2020/12/05 03:09:53;;;;;;;11.27;4.83;;;;;;;;;;5071265;28;20028;-79
2020/12/05 03:12:19;;;;;;;10.63;5.60;;;;;;;;;;5072328;28;20039;-79
2020/12/05 03:14:44;;;;;;;8.73;4.87;;;;;;;;;;5071714;28;20142;-79
2020/12/05 03:17:09;;;;;;;16.97;5.20;;;;;;;;;;5071475;28;20020;-79
2020/12/05 03:19:34;;;;;;;11.00;4.33;;;;;;;;;;5071419;28;20054;-79
2020/12/05 03:22:00;;;;;;;10.37;4.60;;;;;;;;;;5071075;28;20379;-79
2020/12/05 03:24:25;;;;;;;8.60;4.70;;;;;;;;;;5072847;28;20024;-79
2020/12/05 03:26:50;;;;;;;9.03;4.33;;;;;;;;;;5072734;28;20027;-79
2020/12/05 03:29:15;;;;;;;9.87;4.30;;;;;;;;;;5073083;28;20519;-79
2020/12/05 03:34:06;;;;;;;10.83;4.87;;;;;;;;;;5072722;28;20051;-79
2020/12/05 03:36:32;;;;;;;11.57;4.73;;;;;;;;;;5072541;28;20016;-79
2020/12/05 03:38:57;;;;;;;11.57;4.97;;;;;;;;;;5071697;28;20025;-79
2020/12/05 03:41:23;;;;;;;11.37;4.70;;;;;;;;;;5068003;28;20039;-79
2020/12/05 03:43:48;;;;;;;8.33;4.30;;;;;;;;;;5072159;28;20020;-79
2020/12/05 03:46:13;;;;;;;8.37;4.43;;;;;;;;;;5072185;28;20013;-78
2020/12/05 03:48:38;;;;;;;10.57;4.90;;;;;;;;;;5070994;28;20047;-79
2020/12/05 03:51:04;;;;;;;11.40;4.53;;;;;;;;;;5072376;28;20028;-79
2020/12/05 03:53:29;;;;;;;9.40;4.77;;;;;;;;;;5072582;28;20086;-79
2020/12/05 03:55:54;;;;;;;14.03;5.00;;;;;;;;;;5071552;28;20055;-79
2020/12/05 03:58:19;;;;;;;9.30;4.63;;;;;;;;;;5072475;28;20025;-79
2020/12/05 04:00:45;;;;;;;10.57;4.97;;;;;;;;;;5076465;28;20024;-79
2020/12/05 04:03:10;;;;;;;9.43;4.30;;;;;;;;;;5076605;28;20142;-79
2020/12/05 04:05:35;;;;;;;9.67;4.77;;;;;;;;;;5076282;28;20112;-79
2020/12/05 04:08:00;;;;;;;12.53;5.40;;;;;;;;;;5076526;28;20485;-79
2020/12/05 04:10:25;;;;;;;8.13;4.97;;;;;;;;;;5076042;28;20020;-79
2020/12/05 04:12:50;;;;;;;10.47;4.67;;;;;;;;;;5068339;28;20463;-79
2020/12/05 04:15:16;;;;;;;14.10;4.80;;;;;;;;;;5068448;28;20028;-79
2020/12/05 04:17:41;;;;;;;11.23;5.07;;;;;;;;;;5076348;28;20020;-79
2020/12/05 04:20:06;;;;;;;11.10;4.60;;;;;;;;;;5074989;28;20035;-79
2020/12/05 04:22:31;;;;;;;10.60;5.03;;;;;;;;;;5074951;28;20040;-79
2020/12/05 04:24:56;;;;;;;9.63;4.60;;;;;;;;;;5075035;28;20025;-79
2020/12/05 04:27:21;;;;;;;8.77;4.47;;;;;;;;;;5075993;28;20811;-79
2020/12/05 04:29:47;;;;;;;11.50;5.33;;;;;;;;;;5075872;28;20028;-79
2020/12/05 04:32:12;;;;;;;9.80;4.87;;;;;;;;;;5074629;28;20543;-79
2020/12/05 04:34:37;;;;;;;9.77;4.90;;;;;;;;;;5059195;28;20024;-79
2020/12/05 04:37:03;;;;;;;11.20;4.83;;;;;;;;;;5064882;28;20149;-79
2020/12/05 04:39:28;;;;;;;12.33;5.57;;;;;;;;;;5074311;28;20382;-79
2020/12/05 04:41:53;;;;;;;9.40;4.80;;;;;;;;;;5074367;28;20539;-79
2020/12/05 04:44:19;;;;;;;11.00;5.07;;;;;;;;;;5075343;28;20023;-79
2020/12/05 04:46:44;;;;;;;8.33;4.57;;;;;;;;;;5074454;28;20031;-79
2020/12/05 04:49:10;;;;;;;14.80;5.00;;;;;;;;;;5075475;28;20460;-79
2020/12/05 04:51:37;;;;;;;10.30;5.00;;;;;;;;;;5073762;28;20013;-79
2020/12/05 04:54:03;;;;;;;11.20;5.00;;;;;;;;;;5075603;28;20027;-78
2020/12/05 04:56:34;;;;;;;11.80;5.37;;;;;;;;;;5075385;28;20031;-79
2020/12/05 04:59:02;;;;;;;10.43;4.77;;;;;;;;;;5074141;28;20028;-79
2020/12/05 05:01:27;;;;;;;11.43;4.63;;;;;;;;;;5075034;28;20330;-79
2020/12/05 05:03:54;;;;;;;11.97;4.60;;;;;;;;;;5074139;28;20031;-79
2020/12/05 05:06:20;;;;;;;9.30;4.70;;;;;;;;;;5073802;28;20013;-79
2020/12/05 05:08:46;;;;;;;11.93;4.27;;;;;;;;;;5073848;28;20012;-79
2020/12/05 05:11:13;;;;;;;10.50;4.13;;;;;;;;;;5073719;28;20028;-79
2020/12/05 05:13:50;;;;;;;7.10;4.20;;;;;;;;;;5072331;28;20029;-79
2020/12/05 05:16:16;;;;;;;11.43;4.37;;;;;;;;;;5074631;28;20035;-79
2020/12/05 05:18:41;;;;;;;9.17;4.20;;;;;;;;;;5074911;28;20025;-79
2020/12/05 05:21:06;;;;;;;11.23;4.63;;;;;;;;;;5074864;28;20024;-79
2020/12/05 05:23:32;;;;;;;7.87;4.33;;;;;;;;;;5075206;28;20036;-79
2020/12/05 05:25:59;;;;;;;8.27;4.10;;;;;;;;;;5074760;28;20024;-79
2020/12/05 05:28:26;;;;;;;11.30;5.10;;;;;;;;;;5074863;28;20039;-79
2020/12/05 05:31:00;;;;;;;11.93;4.87;;;;;;;;;;5074712;28;20036;-79
2020/12/05 05:33:26;;;;;;;8.53;4.57;;;;;;;;;;5074857;28;20345;-79
2020/12/05 05:35:52;;;;;;;10.33;4.17;;;;;;;;;;5073337;28;20044;-79
2020/12/05 05:38:21;;;;;;;9.33;4.50;;;;;;;;;;5074947;28;20455;-79
2020/12/05 05:40:47;;;;;;;9.97;4.57;;;;;;;;;;5073307;28;20040;-79
2020/12/05 05:43:18;;;;;;;8.07;4.07;;;;;;;;;;5070504;28;20021;-78
2020/12/05 05:45:43;;;;;;;9.30;4.57;;;;;;;;;;5070728;28;20044;-79
2020/12/05 05:48:09;;;;;;;9.10;4.83;;;;;;;;;;5072150;28;20009;-79
2020/12/05 05:50:35;;;;;;;10.03;4.83;;;;;;;;;;5070233;28;20012;-79
2020/12/05 05:53:02;;;;;;;7.13;4.10;;;;;;;;;;5071777;28;20021;-79
2020/12/05 05:55:43;;;;;;;10.37;4.07;;;;;;;;;;5070248;28;20016;-79
2020/12/05 05:58:08;;;;;;;9.53;4.77;;;;;;;;;;5070599;28;20063;-79
2020/12/05 06:00:35;;;;;;;7.87;4.33;;;;;;;;;;5071347;28;20024;-79
2020/12/05 06:03:04;;;;;;;9.10;4.77;;;;;;;;;;5071901;28;20483;-79
2020/12/05 06:05:34;;;;;;;9.43;5.03;;;;;;;;;;5070991;28;20017;-79
2020/12/05 06:08:01;;;;;;;8.73;4.57;;;;;;;;;;5070210;28;20103;-79
2020/12/05 06:10:26;;;;;;;13.80;5.20;;;;;;;;;;5071411;28;20467;-79
2020/12/05 06:12:52;;;;;;;9.57;5.43;;;;;;;;;;5074128;28;20100;-79
2020/12/05 06:15:17;;;;;;;10.47;4.63;;;;;;;;;;5073868;28;20025;-79
2020/12/05 06:17:42;;;;;;;9.23;4.93;;;;;;;;;;5073398;28;20056;-79
2020/12/05 06:20:07;;;;;;;9.43;5.20;;;;;;;;;;5071885;28;20737;-79
2020/12/05 06:22:33;;;;;;;10.60;5.13;;;;;;;;;;5071685;28;20024;-79
2020/12/05 06:24:58;;;;;;;9.50;4.70;;;;;;;;;;5072020;28;20451;-79
2020/12/05 06:27:24;;;;;;;9.80;5.78;;;;;;;;;;5073737;28;20013;-79
2020/12/05 06:29:50;;;;;;;11.93;4.93;;;;;;;;;;5072341;28;20104;-79
2020/12/05 06:32:34;;;;;;;10.30;5.17;;;;;;;;;;5073361;28;20500;-79
2020/12/05 06:34:59;;;;;;;10.17;5.60;;;;;;;;;;5072138;28;20051;-79
2020/12/05 06:37:34;;;;;;;9.20;5.07;;;;;;;;;;5073314;28;20409;-79
2020/12/05 06:40:00;;;;;;;8.87;4.47;;;;;;;;;;5073503;28;20036;-79
2020/12/05 06:42:26;;;;;;;8.33;4.60;;;;;;;;;;5073205;28;20028;-79
2020/12/05 06:44:51;;;;;;;9.83;4.70;;;;;;;;;;5072950;28;20405;-80
2020/12/05 06:47:23;;;;;;;8.13;4.60;;;;;;;;;;5073303;28;20108;-79
2020/12/05 06:49:49;;;;;;;10.27;4.82;;;;;;;;;;5073021;28;20044;-79
2020/12/05 06:52:26;;;;;;;9.13;4.83;;;;;;;;;;5073229;28;20032;-79
2020/12/05 06:54:54;;;;;;;9.37;4.73;;;;;;;;;;5073181;28;20020;-79
2020/12/05 06:57:20;;;;;;;11.83;5.27;;;;;;;;;;5073243;28;20036;-79
2020/12/05 06:59:46;;;;;;;10.73;4.77;;;;;;;;;;5072753;28;20067;-79
2020/12/05 07:02:43;;;;;;;9.67;5.40;;;;;;;;;;5071436;28;20062;-79
2020/12/05 07:05:20;;;;;;;8.83;4.80;;;;;;;;;;5059694;28;20049;-79
2020/12/05 07:07:46;;;;;;;8.33;5.30;;;;;;;;;;5073256;28;20024;-79
2020/12/05 07:10:11;;;;;;;9.37;5.07;;;;;;;;;;5072711;28;20028;-79
2020/12/05 07:12:37;;;;;;;9.00;4.80;;;;;;;;;;5072818;28;20020;-79
2020/12/05 07:15:22;;;;;;;8.17;4.73;;;;;;;;;;5071493;28;20020;-79
2020/12/05 07:17:48;;;;;;;12.10;5.30;;;;;;;;;;5072876;28;20016;-79
2020/12/05 07:20:13;;;;;;;15.43;5.93;;;;;;;;;;5072526;28;20024;-79
2020/12/05 07:22:39;;;;;;;14.57;7.17;;;;;;;;;;5072265;28;20424;-79
2020/12/05 07:25:04;;;;;;;17.73;7.33;;;;;;;;;;5072253;28;20027;-79
2020/12/05 07:27:29;;;;;;;13.53;6.90;;;;;;;;;;5071269;28;20025;-79
2020/12/05 07:29:54;;;;;;;14.23;7.13;;;;;;;;;;5070505;28;20020;-79
2020/12/05 07:32:19;;;;;;;13.40;7.33;;;;;;;;;;5058481;28;20097;-79
2020/12/05 07:34:45;;;;;;;16.07;7.90;;;;;;;;;;5071196;28;20021;-79
2020/12/05 07:37:22;;;;;;;12.53;6.87;;;;;;;;;;5071225;28;20032;-79
2020/12/05 07:39:47;;;;;;;12.80;6.83;;;;;;;;;;5071375;28;20020;-78
2020/12/05 07:42:12;;;;;;;11.77;6.20;;;;;;;;;;5071136;28;20017;-79
2020/12/05 07:44:38;;;;;;;12.17;6.57;;;;;;;;;;5072442;28;20021;-79
2020/12/05 07:47:14;;;;;;;14.73;7.63;;;;;;;;;;5072053;28;20013;-79
2020/12/05 07:49:48;;;;;;;12.73;6.60;;;;;;;;;;5071058;28;20034;-79
2020/12/05 07:52:14;;;;;;;12.80;5.63;;;;;;;;;;5071499;28;20460;-79
2020/12/05 07:54:48;;;;;;;9.00;5.17;;;;;;;;;;5070849;28;20102;-79
2020/12/05 07:57:13;;;;;;;12.77;5.50;;;;;;;;;;5072568;28;20106;-78
2020/12/05 07:59:39;;;;;;;11.13;5.73;;;;;;;;;;5071178;28;20099;-78
2020/12/05 08:02:10;;;;;;;12.63;6.30;;;;;;;;;;5067343;28;20025;-78
2020/12/05 08:04:48;;;;;;;13.30;6.40;;;;;;;;;;5063133;28;20032;-78
2020/12/05 08:07:37;;;;;;;14.13;6.97;;;;;;;;;;5072099;28;20516;-78
2020/12/05 08:10:07;;;;;;;16.10;7.03;;;;;;;;;;5056898;28;20036;-78
2020/12/05 08:12:52;;;;;;;11.47;6.33;;;;;;;;;;5070683;28;20024;-78
2020/12/05 08:15:21;;;;;;;9.57;5.13;;;;;;;;;;5071719;28;20037;-78
2020/12/05 08:17:48;;;;;;;12.77;5.33;;;;;;;;;;5072238;28;20044;-78
2020/12/05 08:20:13;;;;;;;10.17;4.57;;;;;;;;;;5079356;28;20024;-78
2020/12/05 08:22:38;;;;;;;9.60;5.10;;;;;;;;;;5072024;28;20130;-78
2020/12/05 08:25:05;;;;;;;10.43;4.90;;;;;;;;;;5075549;28;20082;-78
2020/12/05 08:27:30;;;;;;;6.77;4.10;;;;;;;;;;5082984;28;20077;-78
2020/12/05 08:29:56;;;;;;;9.63;4.40;;;;;;;;;;5069852;28;20449;-78
2020/12/05 08:32:23;;;;;;;7.13;4.27;;;;;;;;;;5068265;28;20048;-78
2020/12/05 08:34:48;;;;;;;7.27;3.57;;;;;;;;;;5096398;28;20085;-78
2020/12/05 08:37:23;;;;;;;6.53;3.53;;;;;;;;;;5072910;28;20043;-78
2020/12/05 08:39:50;;;;;;;7.77;3.40;;;;;;;;;;5072133;28;20027;-79
2020/12/05 08:42:16;;;;;;;5.97;2.93;;;;;;;;;;5070658;28;20034;-78
2020/12/05 08:44:41;;;;;;;4.97;3.10;;;;;;;;;;5058572;28;20021;-78
2020/12/05 08:47:09;;;;;;;6.47;3.27;;;;;;;;;;5074460;28;20024;-79
2020/12/05 08:49:38;;;;;;;6.50;3.20;;;;;;;;;;5074323;28;20095;-78
2020/12/05 08:52:04;;;;;;;4.50;2.70;;;;;;;;;;5073042;28;20081;-78
2020/12/05 08:54:29;;;;;;;6.67;2.60;;;;;;;;;;5077246;28;20032;-79
2020/12/05 08:57:07;;;;;;;4.70;2.80;;;;;;;;;;5076736;28;20077;-78
2020/12/05 08:59:34;;;;;;;4.37;2.60;;;;;;;;;;5074762;28;20028;-78
2020/12/05 09:01:59;;;;;;;7.10;3.13;;;;;;;;;;5075304;28;20029;-78
2020/12/05 09:04:31;;;;;;;7.80;2.97;;;;;;;;;;5072711;28;20036;-78
2020/12/05 09:06:56;;;;;;;;;;;;;;;;;;5074283;28;20044;-78
2020/12/05 09:09:28;;;;;;;5.32;2.92;;;;;;;;;;5081875;28;19904;-78
2020/12/05 09:12:01;;;;;;;5.00;2.75;;;;;;;;;;5078126;28;20020;-78
2020/12/05 09:14:26;;;;;;;4.80;2.45;;;;;;;;;;5074907;28;20515;-78
2020/12/05 09:16:51;;;;;;;4.27;2.60;;;;;;;;;;5075170;28;20029;-78
2020/12/05 09:19:21;;;;;;;7.23;2.80;;;;;;;;;;5075071;28;20024;-78
2020/12/05 09:21:46;;;;;;;4.13;2.40;;;;;;;;;;5074875;28;20038;-78
2020/12/05 09:24:12;;;;;;;4.50;2.40;;;;;;;;;;5073287;28;20017;-78
2020/12/05 09:26:49;;;;;;;7.00;2.60;;;;;;;;;;5074848;28;20016;-78
2020/12/05 09:29:15;;;;;;;4.77;2.37;;;;;;;;;;5074609;28;20545;-78
2020/12/05 09:31:47;;;;;;;7.57;3.80;;;;;;;;;;5074581;28;20035;-78
2020/12/05 09:34:12;;;;;;;4.88;2.33;;;;;;;;;;5074629;28;20029;-78
2020/12/05 09:36:37;;;;;;;3.87;1.90;;;;;;;;;;5064493;28;20076;-78
2020/12/05 09:39:02;;;;;;;4.50;2.00;;;;;;;;;;5074531;28;20518;-78
2020/12/05 09:41:33;;;;;;;5.00;2.40;;;;;;;;;;5074820;28;20091;-78
2020/12/05 09:43:58;;;;;;;8.13;2.47;;;;;;;;;;5074609;28;20107;-79
2020/12/05 09:46:23;;;;;;;6.37;2.63;;;;;;;;;;5074358;28;20095;-78
2020/12/05 09:48:48;;;;;;;5.73;2.20;;;;;;;;;;5074661;28;20025;-78
2020/12/05 09:51:13;;;;;;;6.50;2.23;;;;;;;;;;5072028;28;20025;-78
2020/12/05 09:53:38;;;;;;;9.57;2.60;;;;;;;;;;5074247;28;20460;-78
2020/12/05 09:56:04;;;;;;;7.60;2.57;;;;;;;;;;5073416;28;20024;-78
2020/12/05 09:58:29;;;;;;;2.87;1.93;;;;;;;;;;5072411;28;20020;-78
2020/12/05 10:00:54;;;;;;;8.73;2.23;;;;;;;;;;5074025;28;20538;-78
2020/12/05 10:03:19;;;;;;;3.47;2.00;;;;;;;;;;5074152;28;20020;-79
2020/12/05 10:05:44;;;;;;;4.70;2.43;;;;;;;;;;5072833;28;20017;-78
2020/12/05 10:08:10;;;;;;;4.70;2.40;;;;;;;;;;5073166;28;20472;-78
2020/12/05 10:10:35;;;;;;;6.33;1.90;;;;;;;;;;5072566;28;20017;-78
2020/12/05 10:13:00;;;;;;;7.33;2.33;;;;;;;;;;5072944;28;20085;-78
2020/12/05 10:15:25;;;;;;;5.23;2.20;;;;;;;;;;5072323;28;20025;-78
2020/12/05 10:17:51;;;;;;;4.27;2.07;;;;;;;;;;5068687;28;20447;-78
2020/12/05 10:20:16;;;;;;;4.07;2.20;;;;;;;;;;5073416;28;20062;-78
2020/12/05 10:22:41;;;;;;;5.10;2.33;;;;;;;;;;5073665;28;20048;-79
2020/12/05 10:25:06;;;;;;;10.07;2.50;;;;;;;;;;5074138;28;20013;-78
2020/12/05 10:27:32;;;;;;;3.90;2.00;;;;;;;;;;5072897;28;20012;-78
2020/12/05 10:29:57;;;;;;;8.37;3.17;;;;;;;;;;5073920;28;20025;-78
2020/12/05 10:32:22;;;;;;;10.13;3.67;;;;;;;;;;5073691;28;20028;-78
2020/12/05 10:34:48;;;;;;;7.70;3.20;;;;;;;;;;5073534;28;20025;-78
2020/12/05 10:37:13;;;;;;;7.17;2.03;;;;;;;;;;5073367;28;20233;-78
2020/12/05 10:39:38;;;;;;;8.10;2.87;;;;;;;;;;5073208;28;20028;-78
2020/12/05 10:42:03;;;;;;;2.73;1.70;;;;;;;;;;5072379;28;20054;-78
2020/12/05 10:44:28;;;;;;;5.00;2.40;;;;;;;;;;5073138;28;20021;-78
2020/12/05 10:46:54;;;;;;;3.37;1.97;;;;;;;;;;5072433;28;20021;-78
2020/12/05 10:49:19;;;;;;;10.03;2.30;;;;;;;;;;5071624;28;20061;-78
2020/12/05 10:51:45;;;;;;;5.47;1.83;;;;;;;;;;5072187;28;20427;-78
2020/12/05 10:54:11;;;;;;;4.47;2.17;;;;;;;;;;5073048;28;20024;-78
2020/12/05 10:56:37;;;;;;;5.23;2.10;;;;;;;;;;5071896;28;20395;-78
2020/12/05 10:59:02;;;;;;;4.10;1.83;;;;;;;;;;5072032;28;20039;-78
2020/12/05 11:01:27;;;;;;;6.57;2.00;;;;;;;;;;5073046;28;20040;-79
2020/12/05 11:03:53;;;;;;;6.60;1.50;;;;;;;;;;5073278;28;20017;-79
2020/12/05 11:06:18;;;;;;;5.43;2.30;;;;;;;;;;5073088;28;20012;-78
2020/12/05 11:08:43;;;;;;;5.53;2.67;;;;;;;;;;5072544;28;20017;-78
2020/12/05 11:11:09;;;;;;;2.80;1.50;;;;;;;;;;5072976;28;20403;-78
2020/12/05 11:13:34;;;;;;;4.97;2.10;;;;;;;;;;5072641;28;20040;-78
2020/12/05 11:15:59;;;;;;;2.73;1.70;;;;;;;;;;5071575;28;20032;-78
2020/12/05 11:18:24;;;;;;;8.20;1.93;;;;;;;;;;5070238;28;20472;-78
2020/12/05 11:20:49;;;;;;;6.90;1.90;;;;;;;;;;5069841;28;20376;-78
2020/12/05 11:23:15;;;;;;;4.73;1.60;;;;;;;;;;5070517;28;20028;-78
2020/12/05 11:25:40;;;;;;;5.23;2.00;;;;;;;;;;5070289;28;20107;-78
2020/12/05 11:28:05;;;;;;;5.60;2.23;;;;;;;;;;5069970;28;20027;-78
2020/12/05 11:30:30;;;;;;;3.67;1.63;;;;;;;;;;5069867;28;20016;-78
2020/12/05 11:32:55;;;;;;;4.10;1.30;;;;;;;;;;5071020;28;20085;-76
2020/12/05 11:35:20;;;;;;;2.55;0.88;;;;;;;;;;5072374;28;20027;-77
2020/12/05 11:37:46;;;;;;;3.60;1.50;;;;;;;;;;5071737;28;20016;-76
2020/12/05 11:40:11;;;;;;;4.20;1.73;;;;;;;;;;5073885;28;20460;-76
2020/12/05 11:42:36;;;;;;;5.70;1.47;;;;;;;;;;5071336;28;20017;-76
2020/12/05 11:45:02;;;;;;;3.37;1.53;;;;;;;;;;5071616;28;20016;-76
2020/12/05 11:47:28;;;;;;;4.17;1.60;;;;;;;;;;5072878;28;20401;-76
2020/12/05 11:49:53;;;;;;;2.87;1.30;;;;;;;;;;5072695;28;20020;-76
2020/12/05 11:52:18;;;;;;;4.23;1.50;;;;;;;;;;5078213;28;20016;-76
2020/12/05 11:54:43;;;;;;;2.92;1.33;;;;;;;;;;5086116;28;20024;-76
2020/12/05 11:57:09;;;;;;;4.43;1.40;;;;;;;;;;5071451;28;20027;-76
2020/12/05 11:59:34;;;;;;;8.77;1.73;;;;;;;;;;5071295;28;20452;-76
2020/12/05 12:01:59;;;;;;;3.67;1.37;;;;;;;;;;5072330;28;20097;-76
2020/12/05 12:04:24;;;;;;;5.30;1.50;;;;;;;;;;5072852;28;20483;-76
2020/12/05 12:06:49;;;;;;;2.10;1.10;;;;;;;;;;5071862;28;20016;-76
2020/12/05 12:09:15;;;;;;;4.90;1.60;;;;;;;;;;5072482;28;20029;-76
2020/12/05 12:11:40;;;;;;;4.20;1.50;;;;;;;;;;5071561;28;20017;-76
2020/12/05 12:14:05;;;;;;;4.30;1.30;;;;;;;;;;5071645;28;20021;-76
2020/12/05 12:16:30;;;;;;;3.87;1.53;;;;;;;;;;5071038;28;20365;-76
2020/12/05 12:18:56;;;;;;;4.23;1.50;;;;;;;;;;5062173;28;20048;-76
2020/12/05 12:21:21;;;;;;;4.07;1.30;;;;;;;;;;5076916;28;20025;-75
2020/12/05 12:23:47;;;;;;;4.60;1.83;;;;;;;;;;5076275;28;20499;-76
2020/12/05 12:26:12;;;;;;;4.37;1.43;;;;;;;;;;5075478;28;20444;-76
2020/12/05 12:28:37;;;;;;;8.03;2.20;;;;;;;;;;5075616;28;20063;-76
2020/12/05 12:31:02;;;;;;;9.03;2.53;;;;;;;;;;5078529;28;20525;-76
2020/12/05 12:33:27;;;;;;;6.07;1.90;;;;;;;;;;5075021;28;20032;-76
2020/12/05 12:35:53;;;;;;;4.67;1.57;;;;;;;;;;5075409;28;20486;-76
2020/12/05 12:38:18;;;;;;;1.73;1.00;;;;;;;;;;5075752;28;20025;-75
2020/12/05 12:40:43;;;;;;;3.17;1.30;;;;;;;;;;5074187;28;20020;-76
2020/12/05 12:43:08;;;;;;;5.97;0.88;;;;;;;;;;5074480;28;20030;-76
2020/12/05 12:45:33;;;;;;;3.85;1.40;;;;;;;;;;5074051;28;20020;-77
2020/12/05 12:50:24;;;;;;;3.58;1.25;;;;;;;;;;5073692;28;20417;-77
2020/12/05 12:52:49;;;;;;;5.18;1.58;;;;;;;;;;5073547;28;20029;-76
2020/12/05 12:55:14;;;;;;;4.83;1.30;;;;;;;;;;5073710;28;20034;-76
2020/12/05 12:57:39;;;;;;;5.37;1.30;;;;;;;;;;5074004;28;20637;-77
2020/12/05 13:00:05;;;;;;;2.73;1.33;;;;;;;;;;5072220;28;20074;-77
2020/12/05 13:02:30;;;;;;;7.13;1.80;;;;;;;;;;5064409;28;20025;-77
2020/12/05 13:04:55;;;;;;;4.03;1.50;;;;;;;;;;5073849;28;20432;-77
2020/12/05 13:07:20;;;;;;;6.40;1.43;;;;;;;;;;5076273;28;20061;-76
2020/12/05 13:09:46;;;;;;;3.43;1.20;;;;;;;;;;5074243;28;20380;-77
2020/12/05 13:12:11;;;;;;;4.23;1.50;;;;;;;;;;5075121;28;20464;-77
2020/12/05 13:14:36;;;;;;;2.70;1.50;;;;;;;;;;5075471;28;20025;-76
2020/12/05 13:17:01;;;;;;;4.50;1.50;;;;;;;;;;5073787;28;20357;-77
2020/12/05 13:19:26;;;;;;;6.70;1.73;;;;;;;;;;5076437;28;20070;-78
2020/12/05 13:21:54;;;;;;;6.47;2.13;;;;;;;;;;5074737;28;20024;-76
2020/12/05 13:24:19;;;;;;;4.47;1.93;;;;;;;;;;5075654;28;20020;-77
2020/12/05 13:26:44;;;;;;;4.63;1.90;;;;;;;;;;5075440;28;20028;-77
2020/12/05 13:29:09;;;;;;;4.67;2.17;;;;;;;;;;5074030;28;20479;-76
2020/12/05 13:31:35;;;;;;;4.50;1.83;;;;;;;;;;5074874;28;20024;-77
2020/12/05 13:34:03;;;;;;;5.73;2.00;;;;;;;;;;5073721;28;20030;-77
2020/12/05 13:36:29;;;;;;;4.22;1.50;;;;;;;;;;5107493;28;20024;-76
2020/12/05 13:38:54;;;;;;;6.73;1.70;;;;;;;;;;5074670;28;20498;-77
2020/12/05 13:41:19;;;;;;;3.00;1.30;;;;;;;;;;5074952;28;20364;-77
2020/12/05 13:43:44;;;;;;;3.40;1.60;;;;;;;;;;5075518;28;20028;-77
2020/12/05 13:46:10;;;;;;;3.05;1.23;;;;;;;;;;5074735;28;20017;-77
2020/12/05 13:48:35;;;;;;;2.50;1.40;;;;;;;;;;5069690;28;20028;-77
2020/12/05 13:51:00;;;;;;;4.05;1.30;;;;;;;;;;5073728;28;20017;-77
2020/12/05 13:53:25;;;;;;;4.65;1.40;;;;;;;;;;5085737;28;20047;-77
2020/12/05 13:55:50;;;;;;;3.28;1.40;;;;;;;;;;5074699;28;20070;-76
2020/12/05 13:58:16;;;;;;;4.10;1.20;;;;;;;;;;5074692;28;20032;-77
2020/12/05 14:00:41;;;;;;;3.35;1.35;;;;;;;;;;5068203;28;20043;-77
2020/12/05 14:03:06;;;;;;;8.70;1.30;;;;;;;;;;5073834;28;20032;-77
2020/12/05 14:05:31;;;;;;;3.35;1.70;;;;;;;;;;5074471;28;20017;-77
2020/12/05 14:07:56;;;;;;;5.90;1.50;;;;;;;;;;5074286;28;20024;-77
2020/12/05 14:10:22;;;;;;;3.85;1.70;;;;;;;;;;5077920;28;20066;-76
2020/12/05 14:12:47;;;;;;;3.67;1.60;;;;;;;;;;5085266;28;20023;-77
2020/12/05 14:15:12;;;;;;;4.93;1.70;;;;;;;;;;5074061;28;20111;-77
2020/12/05 14:17:37;;;;;;;4.40;2.00;;;;;;;;;;5072689;28;20021;-77
2020/12/05 14:20:03;;;;;;;2.92;1.38;;;;;;;;;;5074040;28;20024;-77
2020/12/05 14:22:29;;;;;;;2.25;0.95;;;;;;;;;;5073963;28;20074;-77
2020/12/05 14:24:54;;;;;;;5.00;1.80;;;;;;;;;;5073949;28;20029;-76
2020/12/05 14:27:19;;;;;;;3.17;1.67;;;;;;;;;;5073117;28;20027;-77
2020/12/05 14:29:44;;;;;;;7.45;1.77;;;;;;;;;;5075587;28;20059;-77
2020/12/05 14:32:09;;;;;;;2.95;1.40;;;;;;;;;;5066649;28;20024;-77
2020/12/05 14:34:35;;;;;;;3.47;1.63;;;;;;;;;;5071757;28;20107;-77
2020/12/05 14:37:00;;;;;;;5.07;1.60;;;;;;;;;;5073820;28;20551;-77
2020/12/05 14:39:25;;;;;;;3.13;1.20;;;;;;;;;;5072288;28;20361;-76